Terminal Aerodrome Forecast
Issued by NWS

Home | Current Version | Previous Version | Text Only | Print | Product List | Glossary On
Versions: 1 2 3 4 5 6 7 8 9 10 11 12 13 14 15 16 17 18 19 20 21 22 23 24 25 26
000
FTUS43 KLOT 301143
TAFMDW
TAF
KMDW 301143Z 3012/0112 05011G16KT 2SM -RA BR OVC005
     FM301800 06013G20KT 4SM -SHRA SCT004 OVC006
     FM302000 07013G20KT P6SM VCSH OVC007
     FM302300 08008KT 6SM -SHRA BR OVC008
      TEMPO 3023/0103 3SM TSRA OVC008CB
     FM010500 18010KT P6SM OVC025=

USA.gov is the U.S. government's official web portal to all federal, state and local government web resources and services.